sensor_id;sensor_type;location;lat;lon;timestamp;P1;durP1;ratioP1;P2;durP2;ratioP2
49139;SDS011;34959;49.310;8.646;2024-03-06T00:00:00;4.10;;;1.80;;
49139;SDS011;34959;49.310;8.646;2024-03-06T00:02:27;3.67;;;1.75;;
49139;SDS011;34959;49.310;8.646;2024-03-06T00:04:52;4.50;;;1.83;;
49139;SDS011;34959;49.310;8.646;2024-03-06T00:07:19;2.88;;;1.80;;
49139;SDS011;34959;49.310;8.646;2024-03-06T00:09:44;2.35;;;1.70;;
49139;SDS011;34959;49.310;8.646;2024-03-06T00:12:10;7.15;;;2.10;;
49139;SDS011;34959;49.310;8.646;2024-03-06T00:14:35;3.15;;;1.77;;
49139;SDS011;34959;49.310;8.646;2024-03-06T00:17:01;5.38;;;1.50;;
49139;SDS011;34959;49.310;8.646;2024-03-06T00:19:29;2.90;;;1.67;;
49139;SDS011;34959;49.310;8.646;2024-03-06T00:21:55;2.00;;;1.45;;
49139;SDS011;34959;49.310;8.646;2024-03-06T00:24:20;3.38;;;1.55;;
49139;SDS011;34959;49.310;8.646;2024-03-06T00:26:45;2.45;;;1.80;;
49139;SDS011;34959;49.310;8.646;2024-03-06T00:29:12;2.05;;;1.55;;
49139;SDS011;34959;49.310;8.646;2024-03-06T00:31:41;2.22;;;1.50;;
49139;SDS011;34959;49.310;8.646;2024-03-06T00:34:07;2.50;;;1.52;;
49139;SDS011;34959;49.310;8.646;2024-03-06T00:36:33;3.33;;;1.70;;
49139;SDS011;34959;49.310;8.646;2024-03-06T00:38:58;2.67;;;1.60;;
49139;SDS011;34959;49.310;8.646;2024-03-06T00:41:24;4.75;;;1.63;;
49139;SDS011;34959;49.310;8.646;2024-03-06T00:43:49;2.33;;;1.63;;
49139;SDS011;34959;49.310;8.646;2024-03-06T00:46:15;4.47;;;1.70;;
49139;SDS011;34959;49.310;8.646;2024-03-06T00:48:40;1.55;;;1.38;;
49139;SDS011;34959;49.310;8.646;2024-03-06T00:51:07;1.92;;;1.20;;
49139;SDS011;34959;49.310;8.646;2024-03-06T00:53:35;3.90;;;1.52;;
49139;SDS011;34959;49.310;8.646;2024-03-06T00:56:00;3.35;;;1.70;;
49139;SDS011;34959;49.310;8.646;2024-03-06T00:58:26;8.40;;;1.63;;
49139;SDS011;34959;49.310;8.646;2024-03-06T01:00:51;7.20;;;1.88;;
49139;SDS011;34959;49.310;8.646;2024-03-06T01:03:17;6.72;;;1.70;;
49139;SDS011;34959;49.310;8.646;2024-03-06T01:05:42;4.38;;;1.70;;
49139;SDS011;34959;49.310;8.646;2024-03-06T01:08:07;6.85;;;2.00;;
49139;SDS011;34959;49.310;8.646;2024-03-06T01:10:33;5.57;;;1.80;;
49139;SDS011;34959;49.310;8.646;2024-03-06T01:12:58;3.10;;;1.90;;
49139;SDS011;34959;49.310;8.646;2024-03-06T01:15:24;4.40;;;1.40;;
49139;SDS011;34959;49.310;8.646;2024-03-06T01:17:49;2.88;;;1.60;;
49139;SDS011;34959;49.310;8.646;2024-03-06T01:20:15;3.33;;;1.48;;
49139;SDS011;34959;49.310;8.646;2024-03-06T01:22:41;5.78;;;1.90;;
49139;SDS011;34959;49.310;8.646;2024-03-06T01:25:06;2.92;;;1.70;;
49139;SDS011;34959;49.310;8.646;2024-03-06T01:27:32;2.25;;;1.50;;
49139;SDS011;34959;49.310;8.646;2024-03-06T01:29:57;3.83;;;1.50;;
49139;SDS011;34959;49.310;8.646;2024-03-06T01:32:23;3.42;;;1.50;;
49139;SDS011;34959;49.310;8.646;2024-03-06T01:34:50;3.45;;;1.60;;
49139;SDS011;34959;49.310;8.646;2024-03-06T01:37:15;6.13;;;1.70;;
49139;SDS011;34959;49.310;8.646;2024-03-06T01:39:41;2.42;;;1.38;;
49139;SDS011;34959;49.310;8.646;2024-03-06T01:42:06;3.42;;;1.60;;
49139;SDS011;34959;49.310;8.646;2024-03-06T01:44:32;2.03;;;1.40;;
49139;SDS011;34959;49.310;8.646;2024-03-06T01:46:57;3.05;;;1.65;;
49139;SDS011;34959;49.310;8.646;2024-03-06T01:49:22;2.20;;;1.58;;
49139;SDS011;34959;49.310;8.646;2024-03-06T01:51:49;2.75;;;1.75;;
49139;SDS011;34959;49.310;8.646;2024-03-06T01:54:15;2.63;;;1.40;;
49139;SDS011;34959;49.310;8.646;2024-03-06T01:56:43;2.17;;;1.65;;
49139;SDS011;34959;49.310;8.646;2024-03-06T01:59:10;3.00;;;1.50;;
49139;SDS011;34959;49.310;8.646;2024-03-06T02:01:36;1.95;;;1.42;;
49139;SDS011;34959;49.310;8.646;2024-03-06T02:04:01;3.13;;;1.42;;
49139;SDS011;34959;49.310;8.646;2024-03-06T02:06:27;4.03;;;1.50;;
49139;SDS011;34959;49.310;8.646;2024-03-06T02:08:53;2.70;;;1.55;;
49139;SDS011;34959;49.310;8.646;2024-03-06T02:11:18;2.15;;;1.50;;
49139;SDS011;34959;49.310;8.646;2024-03-06T02:13:44;2.22;;;1.30;;
49139;SDS011;34959;49.310;8.646;2024-03-06T02:16:10;4.25;;;1.70;;
49139;SDS011;34959;49.310;8.646;2024-03-06T02:18:35;4.07;;;1.65;;
49139;SDS011;34959;49.310;8.646;2024-03-06T02:21:02;2.13;;;1.55;;
49139;SDS011;34959;49.310;8.646;2024-03-06T02:23:27;2.75;;;1.70;;
49139;SDS011;34959;49.310;8.646;2024-03-06T02:25:53;3.30;;;1.50;;
49139;SDS011;34959;49.310;8.646;2024-03-06T02:28:18;2.33;;;1.40;;
49139;SDS011;34959;49.310;8.646;2024-03-06T02:30:44;2.15;;;1.50;;
49139;SDS011;34959;49.310;8.646;2024-03-06T02:33:09;2.45;;;1.60;;
49139;SDS011;34959;49.310;8.646;2024-03-06T02:35:35;2.83;;;1.60;;
49139;SDS011;34959;49.310;8.646;2024-03-06T02:38:01;5.03;;;1.63;;
49139;SDS011;34959;49.310;8.646;2024-03-06T02:40:26;2.60;;;1.60;;
49139;SDS011;34959;49.310;8.646;2024-03-06T02:42:52;2.20;;;1.40;;
49139;SDS011;34959;49.310;8.646;2024-03-06T02:45:17;2.63;;;1.33;;
49139;SDS011;34959;49.310;8.646;2024-03-06T02:47:44;3.97;;;1.58;;
49139;SDS011;34959;49.310;8.646;2024-03-06T02:50:09;1.90;;;1.50;;
49139;SDS011;34959;49.310;8.646;2024-03-06T02:52:35;4.20;;;1.58;;
49139;SDS011;34959;49.310;8.646;2024-03-06T02:55:01;4.43;;;1.95;;
49139;SDS011;34959;49.310;8.646;2024-03-06T02:57:27;2.95;;;1.70;;
49139;SDS011;34959;49.310;8.646;2024-03-06T02:59:53;3.13;;;1.50;;
49139;SDS011;34959;49.310;8.646;2024-03-06T03:02:19;2.00;;;1.25;;
49139;SDS011;34959;49.310;8.646;2024-03-06T03:04:45;2.42;;;1.70;;
49139;SDS011;34959;49.310;8.646;2024-03-06T03:07:10;1.95;;;1.38;;
49139;SDS011;34959;49.310;8.646;2024-03-06T03:09:36;2.10;;;1.38;;
49139;SDS011;34959;49.310;8.646;2024-03-06T03:12:01;4.80;;;1.65;;
49139;SDS011;34959;49.310;8.646;2024-03-06T03:14:27;4.13;;;1.60;;
49139;SDS011;34959;49.310;8.646;2024-03-06T03:16:52;2.13;;;1.45;;
49139;SDS011;34959;49.310;8.646;2024-03-06T03:19:20;3.72;;;1.98;;
49139;SDS011;34959;49.310;8.646;2024-03-06T03:21:46;2.90;;;1.30;;
49139;SDS011;34959;49.310;8.646;2024-03-06T03:24:11;3.25;;;1.50;;
49139;SDS011;34959;49.310;8.646;2024-03-06T03:26:36;2.70;;;1.50;;
49139;SDS011;34959;49.310;8.646;2024-03-06T03:29:02;3.08;;;1.60;;
49139;SDS011;34959;49.310;8.646;2024-03-06T03:31:28;2.15;;;1.52;;
49139;SDS011;34959;49.310;8.646;2024-03-06T03:33:53;2.08;;;1.40;;
49139;SDS011;34959;49.310;8.646;2024-03-06T03:36:18;2.38;;;1.48;;
49139;SDS011;34959;49.310;8.646;2024-03-06T03:38:44;2.33;;;1.60;;
49139;SDS011;34959;49.310;8.646;2024-03-06T03:41:10;2.15;;;1.40;;
49139;SDS011;34959;49.310;8.646;2024-03-06T03:43:38;3.33;;;1.30;;
49139;SDS011;34959;49.310;8.646;2024-03-06T03:46:06;3.63;;;1.67;;
49139;SDS011;34959;49.310;8.646;2024-03-06T03:48:32;3.20;;;1.70;;
49139;SDS011;34959;49.310;8.646;2024-03-06T03:51:00;2.45;;;1.60;;
49139;SDS011;34959;49.310;8.646;2024-03-06T03:53:27;6.00;;;1.60;;
49139;SDS011;34959;49.310;8.646;2024-03-06T03:55:52;6.30;;;1.80;;
49139;SDS011;34959;49.310;8.646;2024-03-06T03:58:17;1.77;;;1.48;;
49139;SDS011;34959;49.310;8.646;2024-03-06T04:00:43;2.63;;;1.60;;
49139;SDS011;34959;49.310;8.646;2024-03-06T04:03:08;2.63;;;1.55;;
49139;SDS011;34959;49.310;8.646;2024-03-06T04:05:34;3.17;;;1.20;;
49139;SDS011;34959;49.310;8.646;2024-03-06T04:07:59;1.58;;;1.30;;
49139;SDS011;34959;49.310;8.646;2024-03-06T04:10:25;2.38;;;1.30;;
49139;SDS011;34959;49.310;8.646;2024-03-06T04:12:50;2.30;;;1.38;;
49139;SDS011;34959;49.310;8.646;2024-03-06T04:15:15;2.15;;;1.65;;
49139;SDS011;34959;49.310;8.646;2024-03-06T04:17:41;1.90;;;1.48;;
49139;SDS011;34959;49.310;8.646;2024-03-06T04:20:06;1.77;;;1.33;;
49139;SDS011;34959;49.310;8.646;2024-03-06T04:22:32;2.50;;;1.25;;
49139;SDS011;34959;49.310;8.646;2024-03-06T04:24:58;2.00;;;1.27;;
49139;SDS011;34959;49.310;8.646;2024-03-06T04:27:24;5.38;;;1.60;;
49139;SDS011;34959;49.310;8.646;2024-03-06T04:29:51;2.00;;;1.40;;
49139;SDS011;34959;49.310;8.646;2024-03-06T04:32:17;1.83;;;1.30;;
49139;SDS011;34959;49.310;8.646;2024-03-06T04:34:43;1.60;;;1.10;;
49139;SDS011;34959;49.310;8.646;2024-03-06T04:37:08;2.72;;;1.60;;
49139;SDS011;34959;49.310;8.646;2024-03-06T04:39:34;2.15;;;1.60;;
49139;SDS011;34959;49.310;8.646;2024-03-06T04:41:59;1.63;;;1.40;;
49139;SDS011;34959;49.310;8.646;2024-03-06T04:44:24;2.67;;;1.48;;
49139;SDS011;34959;49.310;8.646;2024-03-06T04:46:50;2.38;;;1.55;;
49139;SDS011;34959;49.310;8.646;2024-03-06T04:49:16;1.77;;;1.27;;
49139;SDS011;34959;49.310;8.646;2024-03-06T04:51:41;4.18;;;1.60;;
49139;SDS011;34959;49.310;8.646;2024-03-06T04:54:06;3.40;;;1.50;;
49139;SDS011;34959;49.310;8.646;2024-03-06T04:56:32;2.90;;;1.45;;
49139;SDS011;34959;49.310;8.646;2024-03-06T04:58:57;2.13;;;1.42;;
49139;SDS011;34959;49.310;8.646;2024-03-06T05:01:28;3.10;;;1.75;;
49139;SDS011;34959;49.310;8.646;2024-03-06T05:03:54;4.57;;;1.52;;
49139;SDS011;34959;49.310;8.646;2024-03-06T05:06:19;2.85;;;1.33;;
49139;SDS011;34959;49.310;8.646;2024-03-06T05:08:44;2.50;;;1.55;;
49139;SDS011;34959;49.310;8.646;2024-03-06T05:11:10;5.32;;;1.60;;
49139;SDS011;34959;49.310;8.646;2024-03-06T05:13:35;8.57;;;1.42;;
49139;SDS011;34959;49.310;8.646;2024-03-06T05:16:01;4.35;;;1.40;;
49139;SDS011;34959;49.310;8.646;2024-03-06T05:18:26;2.95;;;1.70;;
49139;SDS011;34959;49.310;8.646;2024-03-06T05:20:51;4.68;;;1.35;;
49139;SDS011;34959;49.310;8.646;2024-03-06T05:23:17;3.63;;;1.50;;
49139;SDS011;34959;49.310;8.646;2024-03-06T05:25:42;1.73;;;1.30;;
49139;SDS011;34959;49.310;8.646;2024-03-06T05:28:08;7.45;;;1.50;;
49139;SDS011;34959;49.310;8.646;2024-03-06T05:30:33;5.28;;;1.55;;
49139;SDS011;34959;49.310;8.646;2024-03-06T05:32:59;2.00;;;1.50;;
49139;SDS011;34959;49.310;8.646;2024-03-06T05:35:24;5.85;;;1.35;;
49139;SDS011;34959;49.310;8.646;2024-03-06T05:37:50;2.58;;;1.40;;
49139;SDS011;34959;49.310;8.646;2024-03-06T05:40:15;1.83;;;1.25;;
49139;SDS011;34959;49.310;8.646;2024-03-06T05:42:41;3.92;;;1.55;;
49139;SDS011;34959;49.310;8.646;2024-03-06T05:45:07;2.33;;;1.48;;
49139;SDS011;34959;49.310;8.646;2024-03-06T05:47:38;2.05;;;1.45;;
49139;SDS011;34959;49.310;8.646;2024-03-06T05:50:07;1.70;;;1.30;;
49139;SDS011;34959;49.310;8.646;2024-03-06T05:52:32;2.90;;;1.77;;
49139;SDS011;34959;49.310;8.646;2024-03-06T05:54:59;3.05;;;1.13;;
49139;SDS011;34959;49.310;8.646;2024-03-06T05:57:24;3.70;;;1.65;;
49139;SDS011;34959;49.310;8.646;2024-03-06T05:59:50;2.58;;;1.70;;
49139;SDS011;34959;49.310;8.646;2024-03-06T06:02:15;4.95;;;1.30;;
49139;SDS011;34959;49.310;8.646;2024-03-06T06:04:45;4.38;;;1.50;;
49139;SDS011;34959;49.310;8.646;2024-03-06T06:07:10;3.65;;;1.48;;
49139;SDS011;34959;49.310;8.646;2024-03-06T06:09:36;3.88;;;1.50;;
49139;SDS011;34959;49.310;8.646;2024-03-06T06:12:01;5.97;;;1.40;;
49139;SDS011;34959;49.310;8.646;2024-03-06T06:14:26;5.88;;;1.30;;
49139;SDS011;34959;49.310;8.646;2024-03-06T06:16:54;4.93;;;1.27;;
49139;SDS011;34959;49.310;8.646;2024-03-06T06:19:19;3.17;;;1.40;;
49139;SDS011;34959;49.310;8.646;2024-03-06T06:21:45;5.25;;;1.38;;
49139;SDS011;34959;49.310;8.646;2024-03-06T06:24:12;3.05;;;1.42;;
49139;SDS011;34959;49.310;8.646;2024-03-06T06:26:37;3.60;;;1.33;;
49139;SDS011;34959;49.310;8.646;2024-03-06T06:29:03;2.83;;;1.60;;
49139;SDS011;34959;49.310;8.646;2024-03-06T06:31:28;1.45;;;1.20;;
49139;SDS011;34959;49.310;8.646;2024-03-06T06:33:53;1.88;;;1.30;;
49139;SDS011;34959;49.310;8.646;2024-03-06T06:36:19;1.73;;;1.15;;
49139;SDS011;34959;49.310;8.646;2024-03-06T06:38:45;2.33;;;1.40;;
49139;SDS011;34959;49.310;8.646;2024-03-06T06:41:11;1.45;;;1.23;;
49139;SDS011;34959;49.310;8.646;2024-03-06T06:43:36;2.58;;;1.48;;
49139;SDS011;34959;49.310;8.646;2024-03-06T06:46:02;2.58;;;1.70;;
49139;SDS011;34959;49.310;8.646;2024-03-06T06:48:30;2.78;;;1.33;;
49139;SDS011;34959;49.310;8.646;2024-03-06T06:50:55;3.47;;;1.50;;
49139;SDS011;34959;49.310;8.646;2024-03-06T06:53:21;3.45;;;1.42;;
49139;SDS011;34959;49.310;8.646;2024-03-06T06:55:46;2.00;;;1.30;;
49139;SDS011;34959;49.310;8.646;2024-03-06T06:58:11;2.03;;;1.40;;
49139;SDS011;34959;49.310;8.646;2024-03-06T07:00:37;1.80;;;1.33;;
49139;SDS011;34959;49.310;8.646;2024-03-06T07:03:02;24.90;;;1.85;;
49139;SDS011;34959;49.310;8.646;2024-03-06T07:05:28;5.72;;;1.35;;
49139;SDS011;34959;49.310;8.646;2024-03-06T07:07:54;2.22;;;1.30;;
49139;SDS011;34959;49.310;8.646;2024-03-06T07:10:19;2.22;;;1.40;;
49139;SDS011;34959;49.310;8.646;2024-03-06T07:12:45;2.33;;;1.42;;
49139;SDS011;34959;49.310;8.646;2024-03-06T07:15:10;1.92;;;1.25;;
49139;SDS011;34959;49.310;8.646;2024-03-06T07:17:35;2.03;;;1.45;;
49139;SDS011;34959;49.310;8.646;2024-03-06T07:20:01;6.47;;;1.35;;
49139;SDS011;34959;49.310;8.646;2024-03-06T07:22:26;2.20;;;1.50;;
49139;SDS011;34959;49.310;8.646;2024-03-06T07:24:51;2.78;;;1.55;;
49139;SDS011;34959;49.310;8.646;2024-03-06T07:27:17;4.43;;;1.20;;
49139;SDS011;34959;49.310;8.646;2024-03-06T07:29:44;4.55;;;1.30;;
49139;SDS011;34959;49.310;8.646;2024-03-06T07:32:09;2.50;;;1.52;;
49139;SDS011;34959;49.310;8.646;2024-03-06T07:34:35;1.63;;;1.02;;
49139;SDS011;34959;49.310;8.646;2024-03-06T07:37:01;3.97;;;1.38;;
49139;SDS011;34959;49.310;8.646;2024-03-06T07:39:27;2.67;;;1.23;;
49139;SDS011;34959;49.310;8.646;2024-03-06T07:41:52;2.35;;;1.60;;
49139;SDS011;34959;49.310;8.646;2024-03-06T07:44:19;2.05;;;1.40;;
49139;SDS011;34959;49.310;8.646;2024-03-06T07:46:45;1.90;;;1.40;;
49139;SDS011;34959;49.310;8.646;2024-03-06T07:49:10;9.77;;;1.50;;
49139;SDS011;34959;49.310;8.646;2024-03-06T07:51:36;6.57;;;1.50;;
49139;SDS011;34959;49.310;8.646;2024-03-06T07:54:01;4.20;;;1.83;;
49139;SDS011;34959;49.310;8.646;2024-03-06T07:56:29;10.75;;;1.50;;
49139;SDS011;34959;49.310;8.646;2024-03-06T07:58:54;4.80;;;1.30;;
49139;SDS011;34959;49.310;8.646;2024-03-06T08:01:20;3.60;;;1.30;;
49139;SDS011;34959;49.310;8.646;2024-03-06T08:03:46;2.30;;;1.40;;
49139;SDS011;34959;49.310;8.646;2024-03-06T08:06:12;2.40;;;1.38;;
49139;SDS011;34959;49.310;8.646;2024-03-06T08:08:40;4.75;;;1.35;;
49139;SDS011;34959;49.310;8.646;2024-03-06T08:11:06;4.32;;;1.40;;
49139;SDS011;34959;49.310;8.646;2024-03-06T08:13:32;6.60;;;1.60;;
49139;SDS011;34959;49.310;8.646;2024-03-06T08:15:57;2.97;;;1.50;;
49139;SDS011;34959;49.310;8.646;2024-03-06T08:18:22;2.95;;;1.27;;
49139;SDS011;34959;49.310;8.646;2024-03-06T08:20:48;4.40;;;1.20;;
49139;SDS011;34959;49.310;8.646;2024-03-06T08:23:13;5.03;;;1.98;;
49139;SDS011;34959;49.310;8.646;2024-03-06T08:25:39;2.80;;;1.60;;
49139;SDS011;34959;49.310;8.646;2024-03-06T08:28:04;2.58;;;1.45;;
49139;SDS011;34959;49.310;8.646;2024-03-06T08:30:30;3.67;;;1.40;;
49139;SDS011;34959;49.310;8.646;2024-03-06T08:32:56;4.28;;;1.65;;
49139;SDS011;34959;49.310;8.646;2024-03-06T08:35:21;2.97;;;1.50;;
49139;SDS011;34959;49.310;8.646;2024-03-06T08:37:48;4.95;;;1.55;;
49139;SDS011;34959;49.310;8.646;2024-03-06T08:40:14;1.80;;;1.20;;
49139;SDS011;34959;49.310;8.646;2024-03-06T08:42:43;2.53;;;1.40;;
49139;SDS011;34959;49.310;8.646;2024-03-06T08:45:09;5.40;;;1.40;;
49139;SDS011;34959;49.310;8.646;2024-03-06T08:47:35;4.00;;;1.67;;
49139;SDS011;34959;49.310;8.646;2024-03-06T08:50:01;4.35;;;1.50;;
49139;SDS011;34959;49.310;8.646;2024-03-06T08:52:29;4.63;;;1.25;;
49139;SDS011;34959;49.310;8.646;2024-03-06T08:54:56;4.07;;;1.40;;
49139;SDS011;34959;49.310;8.646;2024-03-06T08:57:21;3.83;;;1.40;;
49139;SDS011;34959;49.310;8.646;2024-03-06T08:59:47;5.22;;;1.60;;
49139;SDS011;34959;49.310;8.646;2024-03-06T09:02:13;5.18;;;1.60;;
49139;SDS011;34959;49.310;8.646;2024-03-06T09:04:40;2.88;;;1.48;;
49139;SDS011;34959;49.310;8.646;2024-03-06T09:07:08;4.78;;;1.40;;
49139;SDS011;34959;49.310;8.646;2024-03-06T09:09:34;5.53;;;1.63;;
49139;SDS011;34959;49.310;8.646;2024-03-06T09:12:01;12.68;;;4.47;;
49139;SDS011;34959;49.310;8.646;2024-03-06T09:14:26;7.43;;;5.57;;
49139;SDS011;34959;49.310;8.646;2024-03-06T09:16:52;7.45;;;4.60;;
49139;SDS011;34959;49.310;8.646;2024-03-06T09:19:17;8.10;;;4.38;;
49139;SDS011;34959;49.310;8.646;2024-03-06T09:21:42;7.72;;;4.43;;
49139;SDS011;34959;49.310;8.646;2024-03-06T09:24:08;7.28;;;4.60;;
49139;SDS011;34959;49.310;8.646;2024-03-06T09:26:33;7.88;;;4.95;;
49139;SDS011;34959;49.310;8.646;2024-03-06T09:28:59;7.55;;;4.97;;
49139;SDS011;34959;49.310;8.646;2024-03-06T09:31:26;6.30;;;3.72;;
49139;SDS011;34959;49.310;8.646;2024-03-06T09:33:52;5.43;;;3.45;;
49139;SDS011;34959;49.310;8.646;2024-03-06T09:36:18;6.15;;;2.88;;
49139;SDS011;34959;49.310;8.646;2024-03-06T09:38:43;5.95;;;2.95;;
49139;SDS011;34959;49.310;8.646;2024-03-06T09:41:09;5.93;;;2.78;;
49139;SDS011;34959;49.310;8.646;2024-03-06T09:43:35;4.93;;;2.78;;
49139;SDS011;34959;49.310;8.646;2024-03-06T09:46:00;5.22;;;2.30;;
49139;SDS011;34959;49.310;8.646;2024-03-06T09:48:29;3.90;;;2.13;;
49139;SDS011;34959;49.310;8.646;2024-03-06T09:50:56;4.55;;;2.40;;
49139;SDS011;34959;49.310;8.646;2024-03-06T09:53:23;5.05;;;2.00;;
49139;SDS011;34959;49.310;8.646;2024-03-06T09:55:49;3.38;;;2.35;;
49139;SDS011;34959;49.310;8.646;2024-03-06T09:58:14;4.22;;;2.13;;
49139;SDS011;34959;49.310;8.646;2024-03-06T10:00:40;3.75;;;2.25;;
49139;SDS011;34959;49.310;8.646;2024-03-06T10:03:05;3.60;;;2.10;;
49139;SDS011;34959;49.310;8.646;2024-03-06T10:05:33;4.20;;;2.10;;
49139;SDS011;34959;49.310;8.646;2024-03-06T10:08:02;6.20;;;2.13;;
49139;SDS011;34959;49.310;8.646;2024-03-06T10:10:29;3.70;;;1.85;;
49139;SDS011;34959;49.310;8.646;2024-03-06T10:12:55;2.97;;;1.80;;
49139;SDS011;34959;49.310;8.646;2024-03-06T10:15:22;3.13;;;2.00;;
49139;SDS011;34959;49.310;8.646;2024-03-06T10:17:48;3.63;;;2.05;;
49139;SDS011;34959;49.310;8.646;2024-03-06T10:20:21;3.08;;;1.70;;
49139;SDS011;34959;49.310;8.646;2024-03-06T10:22:50;3.58;;;1.70;;
49139;SDS011;34959;49.310;8.646;2024-03-06T10:25:22;4.88;;;1.83;;
49139;SDS011;34959;49.310;8.646;2024-03-06T10:28:05;2.92;;;1.90;;
49139;SDS011;34959;49.310;8.646;2024-03-06T10:30:34;3.65;;;1.85;;
49139;SDS011;34959;49.310;8.646;2024-03-06T10:33:04;6.30;;;1.63;;
49139;SDS011;34959;49.310;8.646;2024-03-06T10:35:31;3.13;;;1.73;;
49139;SDS011;34959;49.310;8.646;2024-03-06T10:37:59;4.68;;;1.60;;
49139;SDS011;34959;49.310;8.646;2024-03-06T10:40:25;3.80;;;1.60;;
49139;SDS011;34959;49.310;8.646;2024-03-06T10:42:54;8.13;;;1.77;;
49139;SDS011;34959;49.310;8.646;2024-03-06T10:45:20;4.03;;;1.65;;
49139;SDS011;34959;49.310;8.646;2024-03-06T10:47:49;3.30;;;1.73;;
49139;SDS011;34959;49.310;8.646;2024-03-06T10:50:16;6.97;;;1.80;;
49139;SDS011;34959;49.310;8.646;2024-03-06T10:52:43;5.95;;;1.42;;
49139;SDS011;34959;49.310;8.646;2024-03-06T10:55:12;2.28;;;1.63;;
49139;SDS011;34959;49.310;8.646;2024-03-06T10:57:37;4.00;;;1.48;;
49139;SDS011;34959;49.310;8.646;2024-03-06T11:00:04;3.38;;;1.83;;
49139;SDS011;34959;49.310;8.646;2024-03-06T11:02:31;4.93;;;1.70;;
49139;SDS011;34959;49.310;8.646;2024-03-06T11:04:57;3.80;;;1.77;;
49139;SDS011;34959;49.310;8.646;2024-03-06T11:07:23;4.03;;;1.80;;
49139;SDS011;34959;49.310;8.646;2024-03-06T11:09:49;5.78;;;1.65;;
49139;SDS011;34959;49.310;8.646;2024-03-06T11:15:13;2.50;;;1.60;;
49139;SDS011;34959;49.310;8.646;2024-03-06T11:17:39;3.05;;;1.70;;
49139;SDS011;34959;49.310;8.646;2024-03-06T11:28:19;2.53;;;1.52;;
49139;SDS011;34959;49.310;8.646;2024-03-06T11:30:55;3.72;;;1.73;;
49139;SDS011;34959;49.310;8.646;2024-03-06T11:33:23;2.97;;;1.45;;
49139;SDS011;34959;49.310;8.646;2024-03-06T11:38:58;2.65;;;1.40;;
49139;SDS011;34959;49.310;8.646;2024-03-06T11:41:25;3.07;;;1.60;;
49139;SDS011;34959;49.310;8.646;2024-03-06T11:43:52;2.35;;;1.30;;
49139;SDS011;34959;49.310;8.646;2024-03-06T11:46:20;3.08;;;1.65;;
49139;SDS011;34959;49.310;8.646;2024-03-06T11:49:05;2.60;;;1.30;;
49139;SDS011;34959;49.310;8.646;2024-03-06T11:51:40;3.85;;;1.50;;
49139;SDS011;34959;49.310;8.646;2024-03-06T11:54:05;3.22;;;1.40;;
49139;SDS011;34959;49.310;8.646;2024-03-06T11:56:31;2.47;;;1.50;;
49139;SDS011;34959;49.310;8.646;2024-03-06T11:58:57;3.38;;;1.65;;
49139;SDS011;34959;49.310;8.646;2024-03-06T12:01:22;2.53;;;1.42;;
49139;SDS011;34959;49.310;8.646;2024-03-06T12:03:47;2.90;;;1.58;;
49139;SDS011;34959;49.310;8.646;2024-03-06T12:06:13;2.95;;;1.20;;
49139;SDS011;34959;49.310;8.646;2024-03-06T12:08:39;2.13;;;1.30;;
49139;SDS011;34959;49.310;8.646;2024-03-06T12:11:05;4.07;;;1.60;;
49139;SDS011;34959;49.310;8.646;2024-03-06T12:13:31;3.08;;;1.50;;
49139;SDS011;34959;49.310;8.646;2024-03-06T12:15:56;3.40;;;1.33;;
49139;SDS011;34959;49.310;8.646;2024-03-06T12:18:22;3.97;;;1.30;;
49139;SDS011;34959;49.310;8.646;2024-03-06T12:20:49;1.73;;;1.30;;
49139;SDS011;34959;49.310;8.646;2024-03-06T12:23:21;15.00;;;1.40;;
49139;SDS011;34959;49.310;8.646;2024-03-06T12:25:48;5.00;;;1.67;;
49139;SDS011;34959;49.310;8.646;2024-03-06T12:28:17;1.98;;;1.33;;
49139;SDS011;34959;49.310;8.646;2024-03-06T12:30:49;4.00;;;1.20;;
49139;SDS011;34959;49.310;8.646;2024-03-06T12:33:16;4.05;;;1.10;;
49139;SDS011;34959;49.310;8.646;2024-03-06T12:35:41;3.80;;;1.10;;
49139;SDS011;34959;49.310;8.646;2024-03-06T12:38:13;2.60;;;1.20;;
49139;SDS011;34959;49.310;8.646;2024-03-06T12:40:40;2.63;;;1.23;;
49139;SDS011;34959;49.310;8.646;2024-03-06T12:43:06;4.70;;;1.17;;
49139;SDS011;34959;49.310;8.646;2024-03-06T12:45:32;3.08;;;1.38;;
49139;SDS011;34959;49.310;8.646;2024-03-06T12:47:57;3.17;;;1.42;;
49139;SDS011;34959;49.310;8.646;2024-03-06T12:50:23;2.10;;;1.30;;
49139;SDS011;34959;49.310;8.646;2024-03-06T12:52:48;3.03;;;1.35;;
49139;SDS011;34959;49.310;8.646;2024-03-06T12:55:14;2.95;;;1.40;;
49139;SDS011;34959;49.310;8.646;2024-03-06T12:57:39;3.40;;;1.42;;
49139;SDS011;34959;49.310;8.646;2024-03-06T13:00:05;5.43;;;1.30;;
49139;SDS011;34959;49.310;8.646;2024-03-06T13:02:41;2.42;;;1.00;;
49139;SDS011;34959;49.310;8.646;2024-03-06T13:05:07;1.83;;;1.10;;
49139;SDS011;34959;49.310;8.646;2024-03-06T13:07:32;2.22;;;1.17;;
49139;SDS011;34959;49.310;8.646;2024-03-06T13:09:58;3.20;;;1.10;;
49139;SDS011;34959;49.310;8.646;2024-03-06T13:12:23;2.42;;;1.00;;
49139;SDS011;34959;49.310;8.646;2024-03-06T13:14:49;3.70;;;1.00;;
49139;SDS011;34959;49.310;8.646;2024-03-06T13:17:14;3.05;;;1.20;;
49139;SDS011;34959;49.310;8.646;2024-03-06T13:19:39;1.85;;;1.02;;
49139;SDS011;34959;49.310;8.646;2024-03-06T13:22:05;5.85;;;1.30;;
49139;SDS011;34959;49.310;8.646;2024-03-06T13:24:32;1.60;;;1.00;;
49139;SDS011;34959;49.310;8.646;2024-03-06T13:26:58;2.90;;;1.35;;
49139;SDS011;34959;49.310;8.646;2024-03-06T13:29:24;3.45;;;1.25;;
49139;SDS011;34959;49.310;8.646;2024-03-06T13:31:50;3.15;;;1.10;;
49139;SDS011;34959;49.310;8.646;2024-03-06T13:34:15;2.80;;;1.13;;
49139;SDS011;34959;49.310;8.646;2024-03-06T13:36:41;1.95;;;1.20;;
49139;SDS011;34959;49.310;8.646;2024-03-06T13:39:08;1.92;;;1.00;;
49139;SDS011;34959;49.310;8.646;2024-03-06T13:41:34;2.75;;;1.05;;
49139;SDS011;34959;49.310;8.646;2024-03-06T13:43:59;2.78;;;1.15;;
49139;SDS011;34959;49.310;8.646;2024-03-06T13:46:25;1.60;;;1.00;;
49139;SDS011;34959;49.310;8.646;2024-03-06T13:48:50;2.10;;;0.90;;
49139;SDS011;34959;49.310;8.646;2024-03-06T13:51:16;1.77;;;1.20;;
49139;SDS011;34959;49.310;8.646;2024-03-06T13:53:41;2.10;;;1.00;;
49139;SDS011;34959;49.310;8.646;2024-03-06T13:56:06;1.75;;;0.95;;
49139;SDS011;34959;49.310;8.646;2024-03-06T13:58:33;2.95;;;0.98;;
49139;SDS011;34959;49.310;8.646;2024-03-06T14:00:59;2.75;;;1.40;;
49139;SDS011;34959;49.310;8.646;2024-03-06T14:03:24;1.98;;;0.95;;
49139;SDS011;34959;49.310;8.646;2024-03-06T14:05:50;1.67;;;0.85;;
49139;SDS011;34959;49.310;8.646;2024-03-06T14:08:16;3.20;;;1.10;;
49139;SDS011;34959;49.310;8.646;2024-03-06T14:10:45;3.00;;;1.05;;
49139;SDS011;34959;49.310;8.646;2024-03-06T14:13:10;2.42;;;1.05;;
49139;SDS011;34959;49.310;8.646;2024-03-06T14:15:36;3.50;;;1.05;;
49139;SDS011;34959;49.310;8.646;2024-03-06T14:18:01;2.90;;;1.45;;
49139;SDS011;34959;49.310;8.646;2024-03-06T14:20:27;2.00;;;1.20;;
49139;SDS011;34959;49.310;8.646;2024-03-06T14:22:53;1.02;;;0.90;;
49139;SDS011;34959;49.310;8.646;2024-03-06T14:25:18;3.75;;;1.20;;
49139;SDS011;34959;49.310;8.646;2024-03-06T14:27:44;3.90;;;0.98;;
49139;SDS011;34959;49.310;8.646;2024-03-06T14:30:11;1.90;;;0.93;;
49139;SDS011;34959;49.310;8.646;2024-03-06T14:32:37;1.70;;;0.98;;
49139;SDS011;34959;49.310;8.646;2024-03-06T14:35:02;2.35;;;0.98;;
49139;SDS011;34959;49.310;8.646;2024-03-06T14:37:28;2.42;;;0.98;;
49139;SDS011;34959;49.310;8.646;2024-03-06T14:39:53;3.42;;;1.00;;
49139;SDS011;34959;49.310;8.646;2024-03-06T14:42:19;2.95;;;0.95;;
49139;SDS011;34959;49.310;8.646;2024-03-06T14:44:47;2.85;;;1.10;;
49139;SDS011;34959;49.310;8.646;2024-03-06T14:47:13;2.80;;;1.00;;
49139;SDS011;34959;49.310;8.646;2024-03-06T14:49:42;1.92;;;1.20;;
49139;SDS011;34959;49.310;8.646;2024-03-06T14:52:10;3.20;;;0.98;;
49139;SDS011;34959;49.310;8.646;2024-03-06T14:54:35;2.13;;;1.00;;